createdAt,value
2019-02-14T00:03:45.658Z,7.37
2019-02-14T00:08:48.538Z,7.33
2019-02-14T00:13:52.570Z,7.39
2019-02-14T00:18:55.805Z,7.36
2019-02-14T00:23:59.294Z,7.59
2019-02-14T00:29:02.790Z,7.39
2019-02-14T00:34:05.733Z,7.32
2019-02-14T00:39:08.302Z,7.40
2019-02-14T00:44:11.834Z,7.36
2019-02-14T00:49:15.351Z,7.23
2019-02-14T00:54:18.256Z,7.44
2019-02-14T00:59:21.435Z,7.22
2019-02-14T01:04:24.601Z,7.17
2019-02-14T01:09:28.166Z,7.32
2019-02-14T01:14:31.532Z,7.15
2019-02-14T01:19:34.440Z,7.15
2019-02-14T01:24:37.094Z,7.17
2019-02-14T01:29:39.679Z,6.95
2019-02-14T01:34:43.215Z,7.01
2019-02-14T01:39:46.088Z,6.90
2019-02-14T01:44:48.942Z,7.12
2019-02-14T01:49:52.700Z,7.12
2019-02-14T01:54:56.275Z,6.94
2019-02-14T01:59:59.604Z,7.02
2019-02-14T02:05:02.921Z,7.03
2019-02-14T02:10:08.830Z,6.81
2019-02-14T02:15:15.150Z,6.80
2019-02-14T02:20:17.997Z,6.94
2019-02-14T02:25:21.076Z,6.90
2019-02-14T02:30:24.957Z,7.04
2019-02-14T02:35:29.378Z,7.10
2019-02-14T02:40:32.931Z,6.92
2019-02-14T02:45:36.062Z,7.11
2019-02-14T02:50:39.577Z,6.96
2019-02-14T02:55:42.735Z,6.79
2019-02-14T03:00:46.340Z,6.83
2019-02-14T03:05:48.853Z,7.02
2019-02-14T03:10:54.067Z,7.00
2019-02-14T03:15:57.269Z,6.80
2019-02-14T03:21:01.334Z,6.84
2019-02-14T03:26:04.529Z,6.84
2019-02-14T03:31:07.843Z,6.61
2019-02-14T03:36:18.628Z,6.70
2019-02-14T03:41:16.141Z,6.61
2019-02-14T03:46:19.372Z,6.53
2019-02-14T03:51:22.320Z,6.78
2019-02-14T03:56:25.552Z,6.65
2019-02-14T04:01:28.005Z,6.72
2019-02-14T04:06:30.882Z,6.63
2019-02-14T04:11:33.753Z,6.62
2019-02-14T04:16:37.406Z,6.34
2019-02-14T04:21:40.321Z,6.42
2019-02-14T04:26:43.535Z,6.23
2019-02-14T04:31:47.034Z,6.42
2019-02-14T04:36:49.967Z,6.37
2019-02-14T04:41:53.884Z,6.35
2019-02-14T04:46:56.691Z,6.22
2019-02-14T04:51:59.898Z,6.23
2019-02-14T04:57:03.132Z,6.18
2019-02-14T05:02:06.604Z,6.26
2019-02-14T05:07:09.539Z,6.15
2019-02-14T05:12:13.030Z,6.08
2019-02-14T05:17:16.266Z,6.07
2019-02-14T05:22:19.155Z,6.16
2019-02-14T05:27:22.376Z,6.29
2019-02-14T05:32:28.094Z,6.36
2019-02-14T05:37:31.529Z,6.36
2019-02-14T05:42:34.762Z,6.22
2019-02-14T05:47:38.308Z,6.15
2019-02-14T05:52:41.272Z,6.24
2019-02-14T05:57:44.460Z,6.13
2019-02-14T06:02:46.985Z,6.14
2019-02-14T06:07:50.241Z,6.06
2019-02-14T06:12:52.789Z,6.03
2019-02-14T06:17:55.672Z,6.28
2019-02-14T06:22:58.791Z,6.13
2019-02-14T06:28:01.817Z,5.97
2019-02-14T06:33:04.707Z,6.24
2019-02-14T06:38:07.588Z,5.82
2019-02-14T06:43:10.622Z,5.69
2019-02-14T06:48:13.806Z,5.63
2019-02-14T06:53:17.334Z,5.83
2019-02-14T06:58:20.841Z,5.73
2019-02-14T07:03:24.023Z,5.44
2019-02-14T07:08:27.157Z,5.40
2019-02-14T07:13:30.786Z,5.53
2019-02-14T07:18:34.308Z,5.66
2019-02-14T07:23:36.920Z,5.60
2019-02-14T07:28:41.573Z,5.66
2019-02-14T07:33:44.592Z,5.59
2019-02-14T07:38:47.874Z,5.78
2019-02-14T07:43:51.188Z,5.57
2019-02-14T07:48:54.664Z,5.43
2019-02-14T07:53:57.586Z,5.30
2019-02-14T07:59:00.833Z,5.33
2019-02-14T08:04:04.341Z,5.28
2019-02-14T08:09:06.877Z,5.29
2019-02-14T08:14:10.067Z,5.18
2019-02-14T08:19:13.041Z,5.01
2019-02-14T08:24:16.624Z,5.20
2019-02-14T08:29:19.783Z,5.21
2019-02-14T08:34:22.663Z,5.31
2019-02-14T08:39:26.184Z,5.21
2019-02-14T08:44:29.101Z,5.10
2019-02-14T08:49:31.614Z,5.14
2019-02-14T08:54:35.296Z,5.30
2019-02-14T08:59:38.525Z,5.63
2019-02-14T09:04:41.325Z,5.61
2019-02-14T09:09:44.496Z,5.63
2019-02-14T09:14:47.760Z,5.72
2019-02-14T09:19:50.939Z,5.76
2019-02-14T09:24:53.440Z,5.74
2019-02-14T09:29:57.572Z,5.76
2019-02-14T09:35:00.744Z,5.61
2019-02-14T09:40:04.317Z,5.61
2019-02-14T09:45:08.869Z,5.79
2019-02-14T09:50:12.583Z,5.85
2019-02-14T09:55:16.215Z,6.12
2019-02-14T10:00:19.506Z,6.15
2019-02-14T10:05:23.052Z,6.11
2019-02-14T10:10:26.558Z,6.33
2019-02-14T10:15:30.019Z,6.34
2019-02-14T10:20:33.240Z,6.19
2019-02-14T10:25:36.595Z,6.27
2019-02-14T10:30:40.305Z,6.63
2019-02-14T10:35:43.743Z,6.78
2019-02-14T10:40:47.209Z,6.47
2019-02-14T10:45:50.774Z,6.67
2019-02-14T10:50:54.049Z,6.76
2019-02-14T10:55:57.544Z,6.89
2019-02-14T11:01:00.746Z,7.04
2019-02-14T11:06:04.258Z,7.21
2019-02-14T11:11:07.979Z,7.55
2019-02-14T11:16:11.561Z,7.92
2019-02-14T11:21:14.452Z,8.26
2019-02-14T11:26:17.998Z,8.59
2019-02-14T11:31:21.297Z,8.34
2019-02-14T11:36:24.934Z,8.56
2019-02-14T11:41:28.176Z,9.21
2019-02-14T11:46:31.423Z,9.55
2019-02-14T11:51:34.929Z,9.41
2019-02-14T11:56:38.556Z,9.50
2019-02-14T12:01:41.852Z,9.56
2019-02-14T12:06:46.597Z,9.91
2019-02-14T12:11:50.352Z,9.97
2019-02-14T12:16:53.629Z,10.73
2019-02-14T12:21:56.149Z,11.16
2019-02-14T12:26:59.670Z,11.98
2019-02-14T12:32:02.925Z,11.85
2019-02-14T12:37:06.169Z,11.89
2019-02-14T12:42:09.135Z,11.95
2019-02-14T12:47:11.985Z,12.24
2019-02-14T12:52:14.884Z,11.88
2019-02-14T12:57:18.300Z,12.35
2019-02-14T13:02:20.558Z,12.38
2019-02-14T13:07:23.785Z,12.57
2019-02-14T13:12:27.002Z,12.07
2019-02-14T13:17:30.426Z,12.66
2019-02-14T13:22:33.690Z,13.18
2019-02-14T13:27:37.256Z,12.25
2019-02-14T13:32:40.677Z,14.15
2019-02-14T13:37:43.974Z,14.99
2019-02-14T13:42:47.083Z,14.53
2019-02-14T13:47:50.352Z,13.97
2019-02-14T13:52:53.423Z,14.75
2019-02-14T13:57:56.667Z,15.53
2019-02-14T14:02:59.741Z,14.51
2019-02-14T14:08:02.630Z,14.22
2019-02-14T14:13:05.842Z,14.87
2019-02-14T14:18:08.648Z,14.56
2019-02-14T14:23:11.537Z,15.07
2019-02-14T14:28:14.676Z,14.62
2019-02-14T14:33:17.243Z,13.72
2019-02-14T14:38:20.561Z,12.99
2019-02-14T14:43:35.443Z,12.51
2019-02-14T14:48:40.504Z,11.99
2019-02-14T14:53:44.069Z,11.87
2019-02-14T14:58:47.366Z,12.05
2019-02-14T15:03:52.105Z,11.73
2019-02-14T15:08:55.388Z,12.28
2019-02-14T15:13:58.181Z,11.68
2019-02-14T15:19:01.786Z,12.01
2019-02-14T15:24:04.701Z,11.58
2019-02-14T15:29:08.059Z,11.01
2019-02-14T15:34:11.019Z,10.98
2019-02-14T15:39:16.741Z,10.71
2019-02-14T15:44:20.344Z,10.44
2019-02-14T15:49:25.378Z,10.19
2019-02-14T15:54:28.561Z,10.17
2019-02-14T15:59:32.208Z,9.97
2019-02-14T16:04:34.788Z,9.50
2019-02-14T16:09:38.885Z,9.38
2019-02-14T16:14:44.732Z,8.95
2019-02-14T16:19:47.744Z,8.92
2019-02-14T16:24:51.402Z,8.66
2019-02-14T16:29:54.983Z,8.38
2019-02-14T16:34:58.679Z,8.35
2019-02-14T16:40:02.299Z,8.35
2019-02-14T16:45:05.779Z,8.21
2019-02-14T16:50:08.803Z,8.20
2019-02-14T16:55:11.700Z,7.93
2019-02-14T17:00:15.309Z,7.87
2019-02-14T17:05:18.295Z,7.77
2019-02-14T17:10:21.539Z,7.74
2019-02-14T17:15:24.742Z,7.84
2019-02-14T17:20:27.988Z,7.66
2019-02-14T17:25:31.341Z,7.42
2019-02-14T17:30:34.285Z,7.40
2019-02-14T17:35:36.861Z,7.60
2019-02-14T17:40:46.026Z,7.40
2019-02-14T17:45:45.154Z,7.45
2019-02-14T17:50:48.219Z,7.43
2019-02-14T17:55:51.463Z,7.36
2019-02-14T18:00:55.116Z,7.40
2019-02-14T18:05:59.021Z,7.28
2019-02-14T18:11:01.893Z,7.21
2019-02-14T18:16:05.440Z,7.17
2019-02-14T18:21:08.280Z,7.02
2019-02-14T18:26:11.544Z,7.16
2019-02-14T18:31:15.188Z,7.09
2019-02-14T18:36:18.259Z,6.95
2019-02-14T18:41:20.848Z,6.93
2019-02-14T18:46:23.971Z,6.55
2019-02-14T18:51:27.763Z,6.80
2019-02-14T18:56:30.749Z,6.66
2019-02-14T19:01:34.603Z,6.62
2019-02-14T19:06:38.657Z,6.56
2019-02-14T19:11:41.970Z,6.71
2019-02-14T19:16:45.455Z,6.62
2019-02-14T19:21:49.288Z,6.59
2019-02-14T19:26:52.816Z,6.62
2019-02-14T19:31:56.336Z,6.63
2019-02-14T19:37:00.403Z,6.53
2019-02-14T19:42:04.999Z,6.31
2019-02-14T19:47:09.040Z,6.42
2019-02-14T19:52:14.840Z,6.35
2019-02-14T19:57:22.582Z,6.49
2019-02-14T20:02:28.940Z,6.52
2019-02-14T20:07:35.121Z,6.34
2019-02-14T20:12:39.933Z,6.36
2019-02-14T20:17:46.253Z,7.04
2019-02-14T20:22:49.959Z,6.70
2019-02-14T20:27:54.393Z,6.25
2019-02-14T20:33:04.757Z,6.27
2019-02-14T20:38:08.489Z,6.19
2019-02-14T20:43:15.003Z,6.11
2019-02-14T20:48:22.247Z,6.13
2019-02-14T20:53:27.587Z,6.07
2019-02-14T20:58:33.633Z,5.96
2019-02-14T21:03:40.442Z,6.11
2019-02-14T21:08:45.856Z,6.10
2019-02-14T21:13:50.227Z,5.84
2019-02-14T21:18:54.470Z,5.88
2019-02-14T21:23:59.228Z,5.80
2019-02-14T21:29:02.539Z,5.76
2019-02-14T21:34:06.670Z,5.81
2019-02-14T21:39:13.031Z,5.75
2019-02-14T21:44:16.691Z,5.85
2019-02-14T21:49:19.533Z,5.86
2019-02-14T21:54:21.894Z,5.75
2019-02-14T21:59:25.102Z,5.74
2019-02-14T22:04:28.657Z,5.63
2019-02-14T22:09:33.995Z,5.61
2019-02-14T22:14:37.643Z,5.35
2019-02-14T22:19:40.680Z,5.50
2019-02-14T22:24:43.745Z,5.40
2019-02-14T22:29:46.967Z,5.17
2019-02-14T22:34:50.168Z,5.19
2019-02-14T22:39:53.338Z,4.82
2019-02-14T22:44:56.355Z,4.76
2019-02-14T22:49:59.903Z,5.11
2019-02-14T22:55:03.014Z,5.09
2019-02-14T23:00:14.809Z,4.89
2019-02-14T23:05:18.228Z,4.91
2019-02-14T23:10:21.983Z,4.88
2019-02-14T23:15:25.678Z,4.91
2019-02-14T23:20:29.107Z,4.96
2019-02-14T23:25:32.106Z,4.90
2019-02-14T23:30:35.558Z,4.81
2019-02-14T23:35:38.227Z,4.84
2019-02-14T23:40:41.164Z,4.96
2019-02-14T23:45:44.493Z,4.91
2019-02-14T23:50:48.038Z,4.95
2019-02-14T23:55:51.270Z,4.83
